Time;durP1;ratioP1;P1;durP2;ratioP2;P2;SDS_P1;SDS_P2;PMS_P1;PMS_P2;Temp;Humidity;BMP_temperature;BMP_pressure;BME280_temperature;BME280_humidity;BME280_pressure;Samples;Min_cycle;Max_cycle;Signal;HPM_P1;HPM_P2
2022/07/23 00:02:13;;;;;;;3.47;3.37;;;25.10;68.30;;;;;;5109530;27;44027;-70
2022/07/23 00:04:42;;;;;;;3.53;3.43;;;25.30;67.90;;;;;;5108844;27;43912;-69
2022/07/23 00:07:10;;;;;;;3.63;3.57;;;25.40;67.40;;;;;;5107386;27;43877;-69
2022/07/23 00:09:38;;;;;;;3.20;3.20;;;25.60;66.90;;;;;;5090045;27;44005;-68
2022/07/23 00:12:06;;;;;;;3.88;3.78;;;25.70;66.40;;;;;;5090469;27;43956;-69
2022/07/23 00:14:34;;;;;;;3.97;3.88;;;25.90;65.90;;;;;;5108968;27;44139;-69
2022/07/23 00:17:02;;;;;;;3.58;3.47;;;26.00;65.40;;;;;;5108902;27;43431;-69
2022/07/23 00:19:30;;;;;;;3.58;3.58;;;26.10;65.00;;;;;;5109145;27;43354;-69
2022/07/23 00:21:59;;;;;;;3.55;3.45;;;26.20;64.70;;;;;;5090481;27;44171;-70
2022/07/23 00:24:27;;;;;;;3.25;3.25;;;26.30;64.50;;;;;;5108588;27;43885;-70
2022/07/23 00:26:55;;;;;;;3.60;3.50;;;26.20;64.80;;;;;;5089339;27;43835;-69
2022/07/23 00:29:23;;;;;;;3.40;3.30;;;26.00;65.10;;;;;;5070869;28;44064;-69
2022/07/23 00:31:51;;;;;;;3.33;3.33;;;25.80;65.40;;;;;;5108886;27;44075;-70
2022/07/23 00:34:19;;;;;;;3.47;3.40;;;25.60;65.90;;;;;;5108473;27;43932;-70
2022/07/23 00:36:47;;;;;;;3.45;3.35;;;25.50;67.50;;;;;;5108231;27;43999;-69
2022/07/23 00:39:17;;;;;;;3.22;3.22;;;25.30;67.10;;;;;;5069806;28;43874;-69
2022/07/23 00:41:44;;;;;;;3.55;3.45;;;25.20;67.50;;;;;;5069835;28;44070;-69
2022/07/23 00:44:20;;;;;;;3.30;3.30;;;25.10;67.80;;;;;;5082115;27;43897;-69
2022/07/23 00:46:49;;;;;;;3.30;3.30;;;25.00;68.00;;;;;;5088888;27;44208;-69
2022/07/23 00:49:17;;;;;;;3.70;3.60;;;25.00;68.30;;;;;;5088690;27;43971;-68
2022/07/23 00:51:45;;;;;;;3.60;3.50;;;24.90;68.40;;;;;;5088809;27;43442;-68
2022/07/23 00:54:13;;;;;;;3.40;3.40;;;24.90;68.70;;;;;;5088516;27;44015;-70
2022/07/23 00:56:42;;;;;;;4.00;3.90;;;24.80;69.10;;;;;;5088328;27;43975;-69
2022/07/23 00:59:10;;;;;;;3.60;3.50;;;24.90;69.30;;;;;;5070185;27;43843;-70
2022/07/23 01:01:41;;;;;;;3.40;3.40;;;24.90;69.10;;;;;;5089377;27;43425;-69
2022/07/23 01:04:09;;;;;;;3.17;3.17;;;25.00;68.80;;;;;;5069679;27;44981;-69
2022/07/23 01:06:38;;;;;;;3.57;3.47;;;25.10;68.40;;;;;;5069826;27;44954;-69
2022/07/23 01:09:06;;;;;;;3.70;3.60;;;25.20;68.10;;;;;;5088367;27;43963;-69
2022/07/23 01:11:36;;;;;;;3.30;3.30;;;25.40;67.50;;;;;;5070135;27;44264;-69
2022/07/23 01:14:12;;;;;;;3.60;3.50;;;25.60;67.00;;;;;;5088277;27;44066;-69
2022/07/23 01:16:40;;;;;;;3.28;3.28;;;25.70;66.40;;;;;;5069603;27;43949;-69
2022/07/23 01:19:08;;;;;;;3.25;3.15;;;25.90;65.90;;;;;;5102149;27;43865;-70
2022/07/23 01:21:37;;;;;;;3.20;3.20;;;26.00;65.50;;;;;;5089339;27;43870;-70
2022/07/23 01:24:07;;;;;;;3.70;3.60;;;26.10;65.00;;;;;;5089099;27;45857;-70
2022/07/23 01:26:38;;;;;;;3.53;3.33;;;26.30;64.70;;;;;;5089137;27;43947;-69
2022/07/23 01:29:06;;;;;;;3.20;3.20;;;26.30;64.40;;;;;;5085258;28;44070;-70
2022/07/23 01:31:35;;;;;;;3.22;3.17;;;26.20;64.50;;;;;;5074292;27;43519;-69
2022/07/23 01:34:03;;;;;;;3.42;3.33;;;26.10;65.00;;;;;;5089010;27;46050;-69
2022/07/23 01:36:32;;;;;;;3.25;3.25;;;25.90;65.30;;;;;;5088834;27;44448;-69
2022/07/23 01:39:00;;;;;;;3.47;3.38;;;25.70;65.80;;;;;;5089041;27;44003;-69
2022/07/23 01:41:30;;;;;;;3.50;3.50;;;25.50;66.50;;;;;;5088856;27;43955;-69
2022/07/23 01:43:58;;;;;;;3.40;3.40;;;25.30;66.90;;;;;;5088837;27;46009;-69
2022/07/23 01:46:28;;;;;;;3.17;3.08;;;25.20;67.30;;;;;;5088933;27;44066;-71
2022/07/23 01:48:57;;;;;;;3.43;3.37;;;25.10;67.60;;;;;;5089039;27;43936;-70
2022/07/23 01:52:01;;;;;;;3.27;3.27;;;25.10;68.00;;;;;;5083282;27;43530;-69
2022/07/23 01:54:40;;;;;;;3.40;3.30;;;25.00;68.20;;;;;;5068926;28;45147;-69
2022/07/23 01:57:10;;;;;;;3.40;3.40;;;24.90;68.40;;;;;;5069100;28;45856;-69
2022/07/23 01:59:39;;;;;;;3.37;3.27;;;24.90;68.60;;;;;;5069215;28;44043;-69
2022/07/23 02:02:08;;;;;;;3.60;3.50;;;24.90;68.70;;;;;;5069364;28;43909;-69
2022/07/23 02:04:37;;;;;;;3.00;3.00;;;24.80;68.80;;;;;;5068888;28;46914;-69
2022/07/23 02:07:06;;;;;;;3.70;3.60;;;24.80;69.30;;;;;;5068635;28;44484;-69
2022/07/23 02:09:34;;;;;;;3.43;3.33;;;24.80;69.50;;;;;;5087541;27;43962;-70
2022/07/23 02:12:02;;;;;;;3.53;3.47;;;24.90;69.30;;;;;;5069332;28;44058;-70
2022/07/23 02:14:32;;;;;;;3.47;3.40;;;25.00;69.10;;;;;;5068829;28;45786;-69
2022/07/23 02:17:00;;;;;;;3.50;3.30;;;25.10;68.70;;;;;;5069027;28;43984;-69
2022/07/23 02:19:29;;;;;;;3.30;3.30;;;25.20;68.30;;;;;;5068962;28;44039;-70
2022/07/23 02:21:57;;;;;;;3.57;3.47;;;25.30;67.60;;;;;;5069319;28;43873;-70
2022/07/23 02:24:25;;;;;;;3.30;3.30;;;25.50;67.10;;;;;;5087499;27;43890;-69
2022/07/23 02:26:53;;;;;;;3.60;3.50;;;25.70;66.70;;;;;;5068764;28;44808;-70
2022/07/23 02:29:21;;;;;;;3.20;3.20;;;25.90;66.20;;;;;;5068737;28;43962;-70
2022/07/23 02:31:50;;;;;;;3.30;3.30;;;26.00;65.70;;;;;;5090726;27;43885;-69
2022/07/23 02:34:18;;;;;;;3.38;3.38;;;26.10;65.90;;;;;;5097252;27;44744;-69
2022/07/23 02:36:46;;;;;;;3.00;3.00;;;26.20;64.80;;;;;;5091621;27;45078;-70
2022/07/23 02:39:14;;;;;;;3.17;3.17;;;26.30;64.60;;;;;;5072034;28;44088;-70
2022/07/23 02:41:42;;;;;;;3.20;3.20;;;26.30;64.40;;;;;;5091506;27;43489;-69
2022/07/23 02:44:11;;;;;;;3.60;3.50;;;26.20;64.50;;;;;;5083682;27;44630;-69
2022/07/23 02:46:40;;;;;;;2.90;2.90;;;26.10;65.10;;;;;;5072053;28;43949;-69
2022/07/23 02:49:09;;;;;;;3.53;3.42;;;25.90;65.50;;;;;;5083798;27;43458;-70
2022/07/23 02:51:38;;;;;;;3.20;3.20;;;25.60;65.90;;;;;;5063105;27;43837;-69
2022/07/23 02:54:08;;;;;;;3.10;3.10;;;25.50;66.60;;;;;;5071877;27;44115;-70
2022/07/23 02:56:36;;;;;;;3.47;3.38;;;25.30;67.00;;;;;;5072026;27;44991;-69
2022/07/23 02:59:04;;;;;;;3.22;3.22;;;25.20;67.40;;;;;;5090657;27;43322;-70
2022/07/23 03:01:32;;;;;;;3.20;3.20;;;25.10;67.80;;;;;;5072330;27;43999;-70
2022/07/23 03:04:00;;;;;;;3.28;3.28;;;25.00;68.00;;;;;;5071866;27;44895;-70
2022/07/23 03:06:30;;;;;;;3.22;3.13;;;25.00;68.30;;;;;;5071715;27;44459;-69
2022/07/23 03:08:58;;;;;;;3.33;3.33;;;24.90;68.50;;;;;;5072207;27;43870;-70
2022/07/23 03:11:26;;;;;;;3.63;3.53;;;24.90;68.70;;;;;;5091032;27;43441;-69
2022/07/23 03:13:54;;;;;;;3.33;3.23;;;24.80;69.20;;;;;;5071827;27;45707;-70
2022/07/23 03:16:22;;;;;;;3.50;3.40;;;24.80;69.20;;;;;;5089994;27;44099;-70
2022/07/23 03:18:50;;;;;;;3.03;3.03;;;24.90;69.30;;;;;;5071734;27;44059;-69
2022/07/23 03:21:18;;;;;;;3.40;3.30;;;25.00;69.00;;;;;;5072388;27;44559;-69
2022/07/23 03:23:48;;;;;;;3.20;3.10;;;25.10;68.50;;;;;;5071419;27;43989;-69
2022/07/23 03:26:16;;;;;;;3.30;3.20;;;25.20;68.20;;;;;;5071277;27;43975;-70
2022/07/23 03:28:44;;;;;;;4.77;4.33;;;25.40;67.70;;;;;;5071370;27;44063;-69
2022/07/23 03:31:12;;;;;;;7.30;4.90;;;25.50;67.00;;;;;;5071782;27;44139;-69
2022/07/23 03:33:41;;;;;;;7.17;4.90;;;25.70;66.60;;;;;;5071095;27;44166;-69
2022/07/23 03:36:10;;;;;;;9.43;5.50;;;25.90;66.10;;;;;;5071184;27;43987;-69
2022/07/23 03:38:41;;;;;;;6.10;5.35;;;26.00;65.50;;;;;;5071459;27;44031;-70
2022/07/23 03:41:11;;;;;;;11.82;6.07;;;26.10;65.10;;;;;;5089598;27;43943;-69
2022/07/23 03:43:39;;;;;;;6.63;5.78;;;26.30;64.80;;;;;;5071198;27;45969;-69
2022/07/23 03:46:07;;;;;;;16.92;7.57;;;26.30;64.60;;;;;;5089553;27;44100;-69
2022/07/23 03:48:35;;;;;;;11.50;7.28;;;26.10;64.90;;;;;;5071179;27;43984;-69
2022/07/23 03:51:03;;;;;;;10.48;6.90;;;25.90;65.10;;;;;;5071397;27;44241;-69
2022/07/23 03:53:31;;;;;;;9.68;6.40;;;25.80;65.70;;;;;;5089334;27;44646;-68
2022/07/23 03:56:00;;;;;;;8.27;6.20;;;25.60;66.30;;;;;;5089515;27;43372;-69
2022/07/23 03:58:29;;;;;;;6.95;6.00;;;25.40;66.80;;;;;;5071257;27;44107;-69
2022/07/23 04:00:57;;;;;;;6.90;6.20;;;25.30;67.20;;;;;;5090172;27;43936;-70
2022/07/23 04:03:27;;;;;;;8.65;6.22;;;25.20;67.60;;;;;;5089655;27;43898;-69
2022/07/23 04:05:55;;;;;;;8.10;6.43;;;25.10;67.90;;;;;;5070915;27;43349;-70
2022/07/23 04:08:23;;;;;;;8.00;6.47;;;25.00;68.10;;;;;;5072754;27;44103;-69
2022/07/23 04:10:53;;;;;;;7.95;6.80;;;25.00;68.30;;;;;;5074556;27;44054;-69
2022/07/23 04:13:22;;;;;;;10.13;6.70;;;24.90;68.50;;;;;;5070794;27;46266;-70
2022/07/23 04:15:51;;;;;;;8.15;6.40;;;24.90;68.70;;;;;;5071020;27;45085;-70
2022/07/23 04:18:21;;;;;;;7.63;6.33;;;24.80;68.70;;;;;;5074504;27;43898;-69
2022/07/23 04:20:56;;;;;;;9.30;6.87;;;24.80;68.80;;;;;;5091058;27;44098;-69
2022/07/23 04:23:25;;;;;;;8.37;6.73;;;24.80;69.30;;;;;;5090343;27;47076;-69
2022/07/23 04:25:53;;;;;;;9.10;6.80;;;24.80;69.50;;;;;;5090054;27;46284;-70
2022/07/23 04:28:21;;;;;;;10.33;7.30;;;24.80;69.30;;;;;;5079152;28;43888;-69
2022/07/23 04:30:51;;;;;;;10.23;7.13;;;24.90;69.20;;;;;;5071151;28;43848;-69
2022/07/23 04:33:21;;;;;;;8.27;6.93;;;25.00;68.90;;;;;;5070695;28;45954;-70
2022/07/23 04:35:51;;;;;;;9.13;7.17;;;25.20;68.50;;;;;;5070626;28;44093;-69
2022/07/23 04:38:20;;;;;;;9.87;6.93;;;25.30;68.00;;;;;;5089180;27;43320;-69
2022/07/23 04:40:51;;;;;;;7.83;6.97;;;25.50;67.50;;;;;;5070607;28;44016;-71
2022/07/23 04:43:20;;;;;;;11.07;6.75;;;25.60;67.00;;;;;;5089564;27;46268;-68
2022/07/23 04:45:51;;;;;;;7.05;6.25;;;25.80;66.60;;;;;;5070443;28;44680;-70
2022/07/23 04:48:20;;;;;;;8.25;6.85;;;25.90;66.10;;;;;;5082834;27;43912;-69
2022/07/23 04:50:54;;;;;;;8.38;6.57;;;26.00;65.60;;;;;;5071449;27;43507;-70
2022/07/23 04:53:26;;;;;;;8.70;6.53;;;26.10;65.30;;;;;;5088899;27;44994;-69
2022/07/23 04:55:58;;;;;;;7.43;6.60;;;26.20;65.00;;;;;;5089618;27;45685;-70
2022/07/23 04:58:26;;;;;;;9.90;7.45;;;26.20;64.90;;;;;;5090018;27;43924;-70
2022/07/23 05:00:57;;;;;;;10.23;7.03;;;26.10;65.20;;;;;;5090402;27;44091;-69
2022/07/23 05:03:26;;;;;;;7.57;6.80;;;25.90;65.40;;;;;;5089762;27;44981;-70
2022/07/23 05:05:54;;;;;;;7.32;6.55;;;25.70;65.90;;;;;;5074082;27;44544;-68
2022/07/23 05:08:22;;;;;;;6.95;6.35;;;25.50;66.60;;;;;;5070196;27;44070;-68
2022/07/23 05:10:53;;;;;;;6.78;6.10;;;25.40;67.00;;;;;;5070543;27;44004;-69
2022/07/23 05:13:22;;;;;;;7.25;6.53;;;25.30;67.30;;;;;;5069712;27;45614;-69
2022/07/23 05:15:55;;;;;;;6.70;6.10;;;25.10;68.40;;;;;;5070174;28;45121;-69
2022/07/23 05:18:24;;;;;;;6.63;5.95;;;25.10;68.00;;;;;;5070177;28;43966;-70
2022/07/23 05:20:54;;;;;;;7.23;6.63;;;25.00;68.30;;;;;;5070461;28;43929;-69
2022/07/23 05:23:23;;;;;;;6.60;6.00;;;24.90;68.30;;;;;;5069512;28;46084;-69
2022/07/23 05:25:52;;;;;;;7.25;6.55;;;24.90;68.60;;;;;;5074329;27;44009;-69
2022/07/23 05:28:21;;;;;;;6.30;5.80;;;24.80;68.60;;;;;;5085053;28;43896;-69
2022/07/23 05:30:51;;;;;;;6.83;6.20;;;24.80;68.80;;;;;;5088575;27;43567;-69
2022/07/23 05:33:21;;;;;;;6.50;5.90;;;24.80;68.90;;;;;;5088909;27;46850;-69
2022/07/23 05:35:50;;;;;;;7.10;6.10;;;24.80;68.90;;;;;;5070258;28;43845;-70
2022/07/23 05:38:32;;;;;;;6.43;5.83;;;24.80;69.00;;;;;;5088237;27;43423;-69
2022/07/23 05:41:01;;;;;;;8.10;6.60;;;24.80;69.60;;;;;;5069305;27;43999;-69
2022/07/23 05:43:30;;;;;;;6.33;5.83;;;24.80;69.90;;;;;;5069986;27;44060;-70
2022/07/23 05:46:01;;;;;;;6.53;5.97;;;24.80;69.60;;;;;;5074420;27;43974;-70
2022/07/23 05:48:31;;;;;;;6.50;5.90;;;24.90;69.30;;;;;;5069757;27;44060;-69
2022/07/23 05:51:07;;;;;;;7.03;6.33;;;25.10;69.00;;;;;;5069717;27;43999;-70
2022/07/23 05:53:35;;;;;;;7.00;6.30;;;25.20;68.50;;;;;;5069323;27;46152;-70
2022/07/23 05:56:20;;;;;;;6.93;6.23;;;25.30;68.00;;;;;;5087506;27;43359;-69
2022/07/23 05:58:48;;;;;;;6.30;5.77;;;25.50;68.20;;;;;;5107668;27;43939;-68
2022/07/23 06:01:18;;;;;;;6.27;5.87;;;25.60;67.20;;;;;;5089325;27;43494;-69
2022/07/23 06:03:55;;;;;;;6.35;5.85;;;25.70;66.70;;;;;;5089214;27;44062;-71
2022/07/23 06:06:29;;;;;;;5.70;5.20;;;25.90;66.30;;;;;;5066919;27;43969;-70
2022/07/23 06:08:57;;;;;;;6.07;5.57;;;26.00;65.80;;;;;;5088619;27;43876;-69
2022/07/23 06:11:27;;;;;;;6.50;5.93;;;26.00;65.50;;;;;;5069806;27;43942;-70
2022/07/23 06:13:55;;;;;;;6.72;6.07;;;25.90;65.80;;;;;;5069273;27;45826;-70
2022/07/23 06:16:32;;;;;;;6.70;6.10;;;25.80;66.00;;;;;;5071369;27;44068;-70
2022/07/23 06:19:01;;;;;;;5.65;5.25;;;25.60;66.30;;;;;;5088574;27;43956;-69
2022/07/23 06:21:31;;;;;;;5.93;5.43;;;25.40;66.80;;;;;;5089079;27;44034;-69
2022/07/23 06:24:18;;;;;;;5.78;5.47;;;25.30;67.40;;;;;;5087939;27;45969;-68
2022/07/23 06:26:46;;;;;;;5.90;5.50;;;25.10;67.80;;;;;;5088517;27;45396;-69
2022/07/23 06:29:15;;;;;;;5.50;5.10;;;25.00;68.00;;;;;;5088357;27;43865;-69
2022/07/23 06:31:43;;;;;;;6.00;5.50;;;25.00;68.40;;;;;;5088751;27;43999;-70
2022/07/23 06:34:12;;;;;;;5.93;5.33;;;24.90;68.60;;;;;;5081457;27;46736;-69
2022/07/23 06:36:40;;;;;;;6.10;5.60;;;24.80;68.70;;;;;;5107061;27;43817;-70
2022/07/23 06:39:09;;;;;;;6.03;5.60;;;24.80;68.80;;;;;;5106434;27;43979;-69
2022/07/23 06:41:37;;;;;;;5.93;5.50;;;24.80;69.10;;;;;;5087742;27;44119;-69
2022/07/23 06:44:05;;;;;;;5.90;5.50;;;24.80;69.80;;;;;;5087985;27;45672;-70
2022/07/23 06:46:35;;;;;;;5.87;5.47;;;24.80;69.90;;;;;;5082169;28;44489;-70
2022/07/23 06:49:04;;;;;;;5.47;5.13;;;24.80;69.70;;;;;;5074933;27;43390;-70
2022/07/23 06:51:35;;;;;;;5.60;5.20;;;24.90;69.50;;;;;;5088674;27;43968;-70
2022/07/23 06:54:03;;;;;;;5.67;5.30;;;25.00;69.10;;;;;;5106879;27;45117;-70
2022/07/23 06:56:31;;;;;;;5.40;5.00;;;25.10;68.70;;;;;;5080453;27;43767;-69
2022/07/23 06:59:00;;;;;;;5.57;5.23;;;25.30;68.40;;;;;;5087351;27;43980;-69
2022/07/23 07:01:29;;;;;;;5.70;5.30;;;25.40;68.00;;;;;;5076446;27;44395;-69
2022/07/23 07:03:57;;;;;;;5.70;5.20;;;25.50;67.70;;;;;;5059170;27;45724;-69
2022/07/23 07:06:25;;;;;;;5.18;4.88;;;25.60;67.20;;;;;;5100596;27;43400;-70
2022/07/23 07:08:55;;;;;;;5.45;5.13;;;25.70;66.90;;;;;;5106785;27;44033;-69
2022/07/23 07:11:25;;;;;;;5.63;5.22;;;25.80;66.50;;;;;;5106517;27;44055;-70
2022/07/23 07:13:53;;;;;;;4.88;4.57;;;25.90;66.20;;;;;;5086808;27;43935;-69
2022/07/23 07:16:21;;;;;;;5.13;4.83;;;26.00;65.80;;;;;;5069089;27;46365;-69
2022/07/23 07:18:49;;;;;;;5.30;4.95;;;25.90;65.90;;;;;;5090404;27;43359;-69
2022/07/23 07:21:17;;;;;;;5.15;4.80;;;25.80;66.10;;;;;;5091358;27;43933;-69
2022/07/23 07:23:45;;;;;;;5.20;4.90;;;25.60;66.20;;;;;;5109879;27;44008;-68
2022/07/23 07:26:14;;;;;;;5.22;5.03;;;25.50;66.70;;;;;;5109989;27;43950;-70
2022/07/23 07:28:42;;;;;;;5.40;5.00;;;25.30;67.20;;;;;;5109970;27;44021;-69
2022/07/23 07:31:10;;;;;;;4.63;4.43;;;25.20;67.70;;;;;;5096278;27;43446;-70
2022/07/23 07:33:38;;;;;;;4.78;4.57;;;25.10;68.10;;;;;;5097486;27;44950;-70
2022/07/23 07:36:06;;;;;;;5.03;4.70;;;25.00;68.40;;;;;;5109944;27;44195;-71
2022/07/23 07:38:34;;;;;;;5.60;5.20;;;24.90;68.70;;;;;;5109845;27;44035;-70
2022/07/23 07:41:02;;;;;;;5.40;5.05;;;24.90;68.90;;;;;;5109826;27;43844;-69
2022/07/23 07:43:31;;;;;;;4.60;4.40;;;24.80;69.00;;;;;;5109619;27;44070;-70
2022/07/23 07:45:59;;;;;;;5.00;4.80;;;24.80;69.10;;;;;;5102883;27;44051;-69
2022/07/23 07:48:28;;;;;;;5.15;4.90;;;24.80;69.30;;;;;;5109704;27;43901;-69
2022/07/23 07:50:56;;;;;;;4.47;4.30;;;24.80;69.30;;;;;;5091872;27;43927;-69
2022/07/23 07:53:24;;;;;;;5.20;4.90;;;24.70;69.30;;;;;;5090828;27;46152;-70
2022/07/23 07:55:52;;;;;;;4.97;4.67;;;24.70;69.60;;;;;;5089494;27;44219;-70
2022/07/23 07:58:20;;;;;;;5.30;5.10;;;24.70;70.00;;;;;;5089930;27;43857;-70
2022/07/23 08:00:51;;;;;;;4.70;4.43;;;24.70;70.20;;;;;;5090261;27;44074;-70
2022/07/23 08:03:19;;;;;;;5.20;4.90;;;24.80;70.00;;;;;;5089626;27;43956;-69
2022/07/23 08:05:47;;;;;;;5.27;4.97;;;24.90;69.60;;;;;;5089316;27;44144;-70
2022/07/23 08:08:15;;;;;;;5.37;4.97;;;25.00;69.20;;;;;;5089808;27;43995;-69
2022/07/23 08:10:43;;;;;;;4.57;4.27;;;25.10;68.70;;;;;;5089975;27;43755;-70
2022/07/23 08:13:13;;;;;;;4.80;4.50;;;25.30;68.40;;;;;;5089421;27;44994;-70
2022/07/23 08:15:41;;;;;;;5.05;4.75;;;25.30;67.90;;;;;;5091467;27;44004;-70
2022/07/23 08:18:12;;;;;;;4.67;4.47;;;25.40;67.80;;;;;;5090625;27;43876;-69
2022/07/23 08:20:40;;;;;;;4.60;4.40;;;25.60;67.40;;;;;;5109229;27;43954;-70
2022/07/23 08:23:08;;;;;;;4.80;4.47;;;25.70;66.90;;;;;;5106563;27;43888;-69
2022/07/23 08:25:37;;;;;;;4.68;4.47;;;25.80;66.70;;;;;;5089259;27;43997;-69
2022/07/23 08:28:06;;;;;;;4.68;4.47;;;25.90;66.30;;;;;;5088346;27;44055;-70
2022/07/23 08:30:35;;;;;;;4.40;4.30;;;25.90;66.10;;;;;;5089742;27;43917;-69
2022/07/23 08:33:04;;;;;;;4.40;4.20;;;25.80;66.40;;;;;;5089152;27;45072;-70
2022/07/23 08:35:34;;;;;;;4.43;4.22;;;25.60;66.60;;;;;;5089139;27;43387;-69
2022/07/23 08:38:03;;;;;;;4.15;4.05;;;25.50;66.90;;;;;;5089235;27;44236;-69
2022/07/23 08:40:31;;;;;;;4.63;4.43;;;25.30;67.40;;;;;;5088988;27;43980;-68
2022/07/23 08:43:00;;;;;;;4.50;4.30;;;25.20;67.90;;;;;;5089161;27;43881;-68
2022/07/23 08:45:28;;;;;;;4.50;4.30;;;25.10;68.90;;;;;;5089081;27;43987;-69
2022/07/23 08:47:58;;;;;;;4.17;4.07;;;25.00;68.60;;;;;;5089320;27;43865;-69
2022/07/23 08:50:27;;;;;;;4.10;4.00;;;24.90;68.80;;;;;;5089161;27;43981;-69
2022/07/23 08:52:58;;;;;;;4.50;4.30;;;24.80;68.90;;;;;;5088691;27;44964;-70
2022/07/23 08:55:26;;;;;;;4.20;4.10;;;24.80;69.10;;;;;;5093489;27;44001;-70
2022/07/23 08:57:55;;;;;;;4.40;4.28;;;24.80;69.20;;;;;;5108459;27;43992;-70
2022/07/23 09:00:23;;;;;;;4.45;4.25;;;24.80;69.40;;;;;;5108845;27;43920;-70
2022/07/23 09:02:51;;;;;;;4.10;3.90;;;24.70;69.40;;;;;;5108252;27;43612;-69
2022/07/23 09:05:20;;;;;;;4.50;4.30;;;24.70;69.50;;;;;;5108171;27;43420;-69
2022/07/23 09:08:10;;;;;;;4.23;4.13;;;24.70;69.50;;;;;;5090103;27;43935;-70
2022/07/23 09:10:48;;;;;;;4.27;4.17;;;24.70;70.20;;;;;;5089072;27;44002;-69
2022/07/23 09:13:24;;;;;;;4.23;4.10;;;24.70;70.40;;;;;;5088588;27;44043;-69
2022/07/23 09:15:53;;;;;;;4.40;4.23;;;24.70;70.20;;;;;;5104903;27;44080;-70
2022/07/23 09:18:29;;;;;;;4.30;4.07;;;24.90;70.00;;;;;;5108241;27;43809;-69
2022/07/23 09:21:10;;;;;;;4.20;4.00;;;25.00;69.60;;;;;;5104036;27;44085;-69
2022/07/23 09:23:40;;;;;;;4.07;3.87;;;25.10;69.10;;;;;;5081476;27;43976;-70
2022/07/23 09:26:18;;;;;;;4.30;4.20;;;25.20;68.60;;;;;;5081932;27;43945;-68
2022/07/23 09:28:54;;;;;;;4.77;4.57;;;25.30;68.10;;;;;;5069504;27;43450;-70
2022/07/23 09:31:23;;;;;;;4.07;3.97;;;25.40;68.60;;;;;;5108670;27;44023;-69
2022/07/23 09:33:51;;;;;;;4.15;4.00;;;25.60;67.50;;;;;;5091964;27;43857;-69
2022/07/23 09:36:28;;;;;;;3.83;3.72;;;25.60;67.10;;;;;;5088104;27;44000;-69
2022/07/23 09:38:57;;;;;;;4.15;3.95;;;25.80;66.80;;;;;;5105591;27;43398;-68
2022/07/23 09:41:25;;;;;;;4.20;4.05;;;25.80;66.50;;;;;;5090428;27;43900;-70
2022/07/23 09:43:57;;;;;;;4.18;3.97;;;25.80;66.40;;;;;;5105604;27;44010;-70
2022/07/23 09:46:26;;;;;;;4.32;4.13;;;25.70;66.80;;;;;;5107737;27;43903;-70
2022/07/23 09:48:56;;;;;;;3.93;3.83;;;25.50;67.00;;;;;;5107842;27;44065;-69
2022/07/23 09:51:28;;;;;;;3.90;3.80;;;25.40;67.40;;;;;;5108474;27;43894;-69
2022/07/23 09:53:58;;;;;;;3.92;3.83;;;25.30;67.70;;;;;;5107497;27;43931;-70
2022/07/23 09:56:26;;;;;;;3.80;3.70;;;25.10;68.10;;;;;;5088490;27;43900;-69
2022/07/23 09:59:03;;;;;;;3.80;3.70;;;25.10;68.40;;;;;;5100255;27;43722;-69
2022/07/23 10:01:34;;;;;;;4.30;4.20;;;25.00;68.70;;;;;;5108051;27;43959;-69
2022/07/23 10:04:02;;;;;;;3.80;3.70;;;24.90;68.90;;;;;;5107350;27;44062;-70
2022/07/23 10:06:52;;;;;;;3.85;3.75;;;24.80;69.10;;;;;;5105977;27;44144;-69
2022/07/23 10:09:47;;;;;;;3.83;3.73;;;24.80;69.20;;;;;;5082443;27;43374;-69
2022/07/23 10:15:52;;;;;;;3.87;3.77;;;24.70;69.30;;;;;;5078924;27;45886;-70
2022/07/23 10:18:20;;;;;;;4.00;3.90;;;24.70;69.40;;;;;;5091021;27;43940;-70
2022/07/23 10:20:48;;;;;;;3.90;3.80;;;24.70;69.50;;;;;;5107174;27;43888;-69
2022/07/23 10:23:19;;;;;;;3.80;3.70;;;24.70;69.50;;;;;;5107738;27;44056;-70
2022/07/23 10:25:52;;;;;;;4.10;3.90;;;24.70;70.20;;;;;;5107126;27;43954;-68
2022/07/23 10:28:34;;;;;;;4.17;4.07;;;24.70;70.30;;;;;;5107110;27;43999;-69
2022/07/23 10:31:10;;;;;;;3.80;3.70;;;24.80;70.20;;;;;;5080729;27;43915;-70
2022/07/23 10:34:00;;;;;;;4.10;4.00;;;24.90;69.90;;;;;;5085332;27;43427;-70
2022/07/23 10:36:31;;;;;;;4.60;4.40;;;25.00;69.30;;;;;;5087482;27;44865;-70
2022/07/23 10:39:05;;;;;;;3.93;3.83;;;25.20;69.00;;;;;;5087193;27;44178;-69
2022/07/23 10:41:35;;;;;;;4.53;4.40;;;25.30;68.40;;;;;;5086935;27;44123;-69
2022/07/23 10:44:10;;;;;;;4.30;4.20;;;25.40;68.00;;;;;;5087599;27;43987;-69
2022/07/23 10:47:03;;;;;;;3.90;3.67;;;25.50;67.70;;;;;;5080470;27;43941;-69
2022/07/23 10:49:32;;;;;;;3.70;3.60;;;25.60;67.30;;;;;;5087478;27;43923;-70
2022/07/23 10:52:20;;;;;;;4.25;4.15;;;25.60;67.00;;;;;;5089171;27;43946;-70
2022/07/23 10:54:50;;;;;;;4.57;4.30;;;25.70;66.70;;;;;;5090567;27;44639;-69
2022/07/23 10:57:19;;;;;;;4.18;4.07;;;25.70;66.60;;;;;;5090756;27;43596;-69
2022/07/23 11:00:11;;;;;;;4.00;3.90;;;25.60;66.80;;;;;;5083876;27;44212;-69
2022/07/23 11:02:39;;;;;;;3.80;3.70;;;25.50;67.10;;;;;;5090517;27;44044;-69
2022/07/23 11:05:09;;;;;;;3.97;3.88;;;25.40;67.40;;;;;;5085632;27;43940;-69
2022/07/23 11:07:37;;;;;;;3.83;3.70;;;25.20;67.70;;;;;;5110072;27;44996;-69
2022/07/23 11:10:06;;;;;;;3.83;3.72;;;25.10;68.00;;;;;;5110287;27;43873;-69
2022/07/23 11:12:36;;;;;;;3.73;3.63;;;25.00;68.40;;;;;;5093356;27;44008;-69
2022/07/23 11:15:06;;;;;;;3.90;3.80;;;25.00;68.70;;;;;;5090657;27;43917;-69
2022/07/23 11:17:35;;;;;;;3.92;3.83;;;24.90;68.90;;;;;;5090412;27;43936;-69
2022/07/23 11:20:21;;;;;;;3.83;3.73;;;24.80;69.00;;;;;;5090245;27;43966;-70
2022/07/23 11:22:51;;;;;;;3.78;3.67;;;24.80;69.10;;;;;;5083561;27;43432;-69
2022/07/23 11:25:35;;;;;;;3.97;3.87;;;24.80;69.20;;;;;;5062184;27;44054;-70
2022/07/23 11:28:16;;;;;;;3.72;3.63;;;24.70;69.20;;;;;;5086279;27;43987;-69
2022/07/23 11:30:45;;;;;;;4.10;4.00;;;24.70;69.80;;;;;;5090109;27;43322;-69
2022/07/23 11:33:20;;;;;;;3.97;3.87;;;24.70;70.20;;;;;;5089698;27;43963;-70
2022/07/23 11:35:50;;;;;;;3.73;3.63;;;24.80;70.20;;;;;;5090823;27;44286;-68
2022/07/23 11:38:19;;;;;;;3.77;3.67;;;24.80;69.90;;;;;;5095252;27;43984;-69
2022/07/23 11:40:50;;;;;;;3.83;3.73;;;24.90;69.60;;;;;;5102654;27;43968;-69
2022/07/23 11:43:20;;;;;;;3.95;3.85;;;25.00;69.20;;;;;;5109787;27;43433;-69
2022/07/23 11:45:50;;;;;;;3.70;3.60;;;25.10;68.80;;;;;;5103813;27;43820;-69
2022/07/23 11:48:19;;;;;;;3.47;3.40;;;25.30;68.40;;;;;;5083282;27;43886;-69
2022/07/23 11:50:47;;;;;;;3.92;3.83;;;25.30;68.00;;;;;;5090173;27;43832;-69
2022/07/23 11:53:22;;;;;;;3.72;3.63;;;25.50;67.80;;;;;;5083230;27;43983;-70
2022/07/23 11:55:51;;;;;;;3.80;3.70;;;25.50;67.40;;;;;;5084734;27;43926;-70
2022/07/23 11:58:20;;;;;;;3.97;3.88;;;25.60;67.20;;;;;;5089760;27;43600;-69
2022/07/23 12:00:48;;;;;;;3.80;3.70;;;25.70;67.00;;;;;;5097563;27;44134;-69
2022/07/23 12:03:16;;;;;;;3.47;3.37;;;25.80;66.80;;;;;;5109371;27;43947;-70
2022/07/23 12:05:44;;;;;;;3.80;3.70;;;25.70;66.60;;;;;;5109586;27;43908;-69
2022/07/23 12:08:12;;;;;;;3.60;3.50;;;25.60;66.90;;;;;;5109161;27;43591;-70
2022/07/23 12:10:41;;;;;;;3.60;3.50;;;25.50;67.20;;;;;;5109431;27;44033;-69
2022/07/23 12:13:11;;;;;;;3.88;3.75;;;25.40;67.40;;;;;;5109424;27;43595;-70
2022/07/23 12:15:41;;;;;;;3.40;3.30;;;25.20;67.70;;;;;;5091042;27;43882;-70
2022/07/23 12:18:12;;;;;;;3.72;3.63;;;25.10;68.10;;;;;;5108862;27;44796;-70
2022/07/23 12:20:41;;;;;;;3.50;3.40;;;25.00;68.40;;;;;;5109175;27;43950;-70
2022/07/23 12:23:10;;;;;;;3.30;3.30;;;25.00;68.70;;;;;;5108992;27;43936;-70
2022/07/23 12:25:39;;;;;;;3.40;3.30;;;24.90;68.90;;;;;;5109432;27;43893;-69
2022/07/23 12:28:09;;;;;;;3.43;3.33;;;24.80;69.10;;;;;;5108674;27;44047;-68
2022/07/23 12:30:40;;;;;;;3.70;3.60;;;24.80;69.20;;;;;;5108936;27;43845;-68
2022/07/23 12:33:09;;;;;;;3.53;3.43;;;24.80;69.40;;;;;;5108927;27;44088;-70
2022/07/23 12:35:40;;;;;;;3.70;3.60;;;24.70;69.30;;;;;;5109414;27;43992;-69
2022/07/23 12:38:08;;;;;;;3.70;3.60;;;24.70;69.30;;;;;;5108894;27;44026;-69
2022/07/23 12:40:38;;;;;;;3.30;3.20;;;24.70;69.50;;;;;;5108348;27;43710;-70
2022/07/23 12:43:07;;;;;;;3.58;3.47;;;24.70;69.50;;;;;;5085797;28;43936;-70
2022/07/23 12:45:47;;;;;;;3.78;3.67;;;24.70;69.80;;;;;;5089429;27;44015;-69
2022/07/23 12:48:25;;;;;;;3.28;3.22;;;24.70;70.30;;;;;;5108148;27;43998;-70
2022/07/23 12:50:58;;;;;;;3.80;3.70;;;24.70;71.00;;;;;;5107932;27;43915;-70
2022/07/23 12:53:28;;;;;;;3.87;3.77;;;24.80;70.10;;;;;;5089207;27;43971;-70
2022/07/23 12:56:04;;;;;;;3.80;3.70;;;24.90;69.70;;;;;;5090950;27;43892;-70
2022/07/23 12:58:47;;;;;;;3.40;3.30;;;25.00;69.30;;;;;;5091067;27;43960;-69
2022/07/23 13:01:32;;;;;;;3.70;3.60;;;25.20;68.80;;;;;;5088585;27;43979;-69
2022/07/23 13:04:02;;;;;;;3.40;3.30;;;25.30;68.30;;;;;;5095908;27;43998;-70
2022/07/23 13:06:39;;;;;;;3.03;3.03;;;25.40;68.00;;;;;;5108925;27;43900;-69